createdAt,value
2022-10-23T00:01:50.525Z,21.53
2022-10-23T00:04:21.325Z,21.53
2022-10-23T00:06:50.735Z,21.58
2022-10-23T00:09:22.596Z,21.55
2022-10-23T00:11:51.795Z,21.58
2022-10-23T00:14:23.412Z,21.48
2022-10-23T00:16:52.158Z,21.35
2022-10-23T00:19:21.016Z,21.40
2022-10-23T00:21:49.401Z,21.36
2022-10-23T00:24:17.480Z,21.35
2022-10-23T00:26:45.587Z,21.43
2022-10-23T00:29:13.623Z,21.34
2022-10-23T00:31:41.552Z,21.31
2022-10-23T00:34:09.438Z,21.37
2022-10-23T00:36:38.122Z,21.30
2022-10-23T00:39:07.189Z,21.18
2022-10-23T00:41:35.310Z,21.21
2022-10-23T00:44:11.525Z,21.33
2022-10-23T00:46:41.205Z,21.42
2022-10-23T00:51:45.694Z,21.42
2022-10-23T00:54:24.351Z,21.44
2022-10-23T00:56:56.840Z,21.26
2022-10-23T00:59:24.082Z,21.29
2022-10-23T01:01:52.669Z,21.17
2022-10-23T01:04:20.914Z,21.09
2022-10-23T01:07:01.864Z,21.03
2022-10-23T01:09:41.241Z,21.03
2022-10-23T01:12:49.917Z,21.05
2022-10-23T01:15:49.900Z,21.09
2022-10-23T01:18:30.844Z,21.01
2022-10-23T01:21:27.440Z,21.01
2022-10-23T01:24:26.580Z,20.96
2022-10-23T01:27:19.155Z,21.01
2022-10-23T01:29:59.521Z,21.00
2022-10-23T01:32:40.921Z,21.05
2022-10-23T01:35:26.281Z,21.05
2022-10-23T01:38:35.191Z,20.98
2022-10-23T01:41:21.714Z,20.85
2022-10-23T01:44:13.887Z,20.85
2022-10-23T01:46:53.584Z,20.81
2022-10-23T01:49:27.586Z,20.77
2022-10-23T01:52:08.390Z,20.82
2022-10-23T01:54:46.962Z,20.83
2022-10-23T01:57:18.218Z,20.88
2022-10-23T01:59:53.437Z,20.86
2022-10-23T02:02:27.478Z,20.89
2022-10-23T02:05:07.561Z,20.91
2022-10-23T02:07:36.238Z,20.94
2022-10-23T02:10:08.931Z,20.95
2022-10-23T02:12:36.653Z,20.94
2022-10-23T02:15:19.878Z,20.94
2022-10-23T02:18:41.135Z,20.97
2022-10-23T02:21:32.362Z,20.85
2022-10-23T02:24:14.031Z,20.87
2022-10-23T02:27:02.884Z,20.88
2022-10-23T02:29:45.317Z,20.85
2022-10-23T02:32:16.748Z,20.88
2022-10-23T02:34:47.214Z,20.86
2022-10-23T02:37:18.589Z,20.82
2022-10-23T02:39:56.978Z,20.81
2022-10-23T02:42:48.730Z,20.77
2022-10-23T02:45:52.268Z,20.74
2022-10-23T02:48:26.946Z,20.71
2022-10-23T02:51:49.916Z,20.81
2022-10-23T02:54:44.635Z,20.85
2022-10-23T02:57:29.312Z,20.84
2022-10-23T03:00:12.204Z,20.68
2022-10-23T03:03:05.646Z,20.75
2022-10-23T03:05:37.159Z,20.66
2022-10-23T03:08:13.529Z,20.54
2022-10-23T03:10:43.718Z,20.62
2022-10-23T03:13:12.260Z,20.52
2022-10-23T03:15:42.559Z,20.38
2022-10-23T03:18:13.315Z,20.37
2022-10-23T03:20:47.457Z,20.36
2022-10-23T03:23:15.946Z,20.37
2022-10-23T03:25:43.722Z,20.39
2022-10-23T03:28:24.025Z,20.34
2022-10-23T03:30:51.569Z,20.18
2022-10-23T03:33:20.256Z,20.18
2022-10-23T03:36:06.500Z,20.21
2022-10-23T03:38:38.304Z,20.23
2022-10-23T03:41:07.595Z,20.33
2022-10-23T03:43:35.395Z,20.28
2022-10-23T03:46:03.500Z,20.30
2022-10-23T03:48:32.608Z,20.28
2022-10-23T03:51:01.497Z,20.37
2022-10-23T03:53:32.601Z,20.37
2022-10-23T03:56:03.025Z,20.43
2022-10-23T03:58:32.014Z,20.45
2022-10-23T04:01:01.054Z,20.52
2022-10-23T04:03:28.979Z,20.52
2022-10-23T04:05:57.102Z,20.49
2022-10-23T04:08:25.012Z,20.51
2022-10-23T04:10:57.845Z,20.45
2022-10-23T04:13:35.483Z,20.43
2022-10-23T04:16:03.557Z,20.44
2022-10-23T04:18:31.180Z,20.42
2022-10-23T04:20:59.812Z,20.43
2022-10-23T04:23:27.774Z,20.31
2022-10-23T04:25:58.568Z,20.46
2022-10-23T04:28:27.776Z,20.51
2022-10-23T04:30:55.843Z,20.44
2022-10-23T04:33:24.952Z,20.40
2022-10-23T04:35:53.255Z,20.28
2022-10-23T04:38:21.493Z,20.28
2022-10-23T04:40:51.068Z,20.33
2022-10-23T04:43:22.567Z,20.18
2022-10-23T04:45:50.946Z,20.25
2022-10-23T04:48:19.367Z,20.23
2022-10-23T04:51:16.345Z,20.28
2022-10-23T04:54:06.559Z,20.22
2022-10-23T04:57:04.263Z,20.26
2022-10-23T04:59:48.073Z,20.26
2022-10-23T05:02:16.355Z,20.33
2022-10-23T05:04:44.662Z,20.35
2022-10-23T05:07:30.989Z,20.24
2022-10-23T05:10:07.905Z,20.39
2022-10-23T05:12:45.898Z,20.41
2022-10-23T05:15:13.890Z,20.41
2022-10-23T05:17:45.011Z,20.44
2022-10-23T05:20:19.079Z,20.43
2022-10-23T05:22:51.091Z,20.45
2022-10-23T05:25:21.801Z,20.46
2022-10-23T05:27:54.175Z,20.34
2022-10-23T05:30:22.997Z,20.45
2022-10-23T05:32:51.057Z,20.48
2022-10-23T05:35:24.333Z,20.47
2022-10-23T05:37:55.255Z,20.51
2022-10-23T05:40:26.255Z,20.31
2022-10-23T05:43:00.339Z,20.39
2022-10-23T05:45:46.441Z,20.47
2022-10-23T05:48:35.621Z,20.44
2022-10-23T05:51:12.170Z,20.51
2022-10-23T05:54:15.343Z,20.52
2022-10-23T05:57:00.077Z,20.53
2022-10-23T05:59:43.651Z,20.57
2022-10-23T06:02:34.988Z,20.58
2022-10-23T06:05:12.252Z,20.64
2022-10-23T06:07:45.838Z,20.58
2022-10-23T06:10:14.046Z,20.63
2022-10-23T06:12:48.327Z,20.63
2022-10-23T06:15:21.294Z,20.65
2022-10-23T06:18:15.042Z,20.72
2022-10-23T06:20:57.626Z,20.78
2022-10-23T06:23:38.699Z,20.79
2022-10-23T06:26:16.833Z,20.79
2022-10-23T06:28:57.672Z,20.87
2022-10-23T06:31:35.444Z,20.76
2022-10-23T06:34:06.603Z,20.99
2022-10-23T06:36:34.285Z,21.11
2022-10-23T06:39:19.969Z,21.14
2022-10-23T06:42:07.961Z,21.14
2022-10-23T06:44:53.908Z,21.09
2022-10-23T06:47:40.215Z,21.07
2022-10-23T06:50:31.527Z,21.08
2022-10-23T06:53:05.834Z,21.14
2022-10-23T06:55:35.114Z,21.23
2022-10-23T06:58:03.581Z,21.37
2022-10-23T07:00:31.666Z,21.32
2022-10-23T07:03:00.665Z,21.40
2022-10-23T07:05:28.329Z,21.43
2022-10-23T07:07:56.370Z,21.41
2022-10-23T07:10:29.008Z,21.49
2022-10-23T07:13:01.660Z,21.43
2022-10-23T07:15:32.133Z,21.54
2022-10-23T07:18:00.368Z,21.56
2022-10-23T07:20:40.652Z,21.50
2022-10-23T07:23:09.906Z,21.64
2022-10-23T07:25:40.292Z,21.51
2022-10-23T07:28:12.048Z,21.50
2022-10-23T07:30:41.448Z,21.49
2022-10-23T07:33:13.058Z,21.57
2022-10-23T07:36:00.210Z,21.52
2022-10-23T07:38:29.534Z,21.43
2022-10-23T07:41:01.347Z,21.44
2022-10-23T07:43:30.019Z,21.66
2022-10-23T07:45:57.817Z,21.67
2022-10-23T07:48:31.948Z,21.81
2022-10-23T07:51:10.980Z,21.80
2022-10-23T07:54:01.736Z,21.84
2022-10-23T07:56:50.185Z,21.91
2022-10-23T07:59:24.611Z,22.00
2022-10-23T08:01:56.941Z,21.81
2022-10-23T08:04:32.460Z,21.80
2022-10-23T08:07:05.862Z,21.79
2022-10-23T08:09:39.118Z,21.81
2022-10-23T08:12:06.914Z,21.85
2022-10-23T08:14:34.461Z,21.92
2022-10-23T08:19:48.760Z,22.08
2022-10-23T08:22:18.578Z,22.27
2022-10-23T08:24:47.006Z,22.33
2022-10-23T08:27:14.517Z,22.35
2022-10-23T08:29:48.700Z,22.31
2022-10-23T08:32:16.504Z,22.49
2022-10-23T08:35:13.946Z,22.62
2022-10-23T08:37:41.825Z,22.73
2022-10-23T08:40:24.021Z,22.86
2022-10-23T08:43:12.673Z,22.89
2022-10-23T08:45:57.746Z,23.03
2022-10-23T08:48:56.091Z,23.23
2022-10-23T08:51:47.612Z,23.22
2022-10-23T08:54:21.830Z,23.19
2022-10-23T08:56:56.092Z,23.21
2022-10-23T08:59:33.330Z,23.43
2022-10-23T09:02:25.756Z,23.56
2022-10-23T09:04:57.730Z,23.67
2022-10-23T09:07:30.274Z,23.69
2022-10-23T09:10:08.977Z,23.72
2022-10-23T09:12:40.862Z,23.75
2022-10-23T09:15:18.678Z,23.76
2022-10-23T09:17:48.168Z,23.75
2022-10-23T09:20:48.662Z,23.82
2022-10-23T09:23:21.963Z,23.82
2022-10-23T09:25:55.746Z,23.77
2022-10-23T09:28:31.223Z,23.80
2022-10-23T09:31:09.739Z,23.90
2022-10-23T09:33:39.963Z,23.96
2022-10-23T09:36:09.539Z,24.07
2022-10-23T09:38:45.623Z,24.13
2022-10-23T09:41:28.758Z,24.19
2022-10-23T09:44:08.369Z,24.25
2022-10-23T09:46:43.289Z,24.30
2022-10-23T09:49:24.220Z,24.39
2022-10-23T09:52:22.478Z,24.40
2022-10-23T09:55:01.420Z,24.35
2022-10-23T09:57:37.330Z,24.46
2022-10-23T10:00:26.962Z,24.51
2022-10-23T10:03:01.482Z,24.57
2022-10-23T10:05:44.291Z,24.54
2022-10-23T10:08:29.561Z,24.56
2022-10-23T10:11:05.525Z,24.59
2022-10-23T10:13:38.613Z,24.64
2022-10-23T10:16:34.757Z,24.65
2022-10-23T10:19:17.967Z,24.66
2022-10-23T10:22:27.356Z,24.69
2022-10-23T10:25:24.585Z,24.71
2022-10-23T10:28:15.696Z,24.73
2022-10-23T10:31:01.314Z,24.79
2022-10-23T10:33:48.340Z,24.86
2022-10-23T10:36:48.514Z,24.93
2022-10-23T10:39:41.418Z,24.99
2022-10-23T10:42:36.383Z,25.06
2022-10-23T10:45:20.123Z,25.12
2022-10-23T10:47:52.067Z,25.16
2022-10-23T10:50:39.293Z,25.24
2022-10-23T10:53:43.516Z,25.24
2022-10-23T10:56:15.673Z,25.25
2022-10-23T10:58:50.634Z,25.25
2022-10-23T11:01:43.373Z,25.25
2022-10-23T11:04:36.479Z,25.24
2022-10-23T11:07:09.944Z,25.27
2022-10-23T11:09:40.542Z,25.28
2022-10-23T11:12:14.958Z,25.33
2022-10-23T11:14:43.712Z,25.37
2022-10-23T11:17:39.335Z,25.36
2022-10-23T11:20:42.047Z,25.35
2022-10-23T11:23:21.583Z,25.30
2022-10-23T11:26:30.440Z,25.32
2022-10-23T11:29:42.597Z,25.32
2022-10-23T11:32:29.523Z,25.36
2022-10-23T11:34:56.755Z,25.33
2022-10-23T11:37:25.257Z,25.33
2022-10-23T11:40:25.129Z,25.34
2022-10-23T11:42:53.501Z,25.39
2022-10-23T11:45:47.340Z,25.46
2022-10-23T11:48:15.685Z,25.46
2022-10-23T11:50:45.867Z,25.53
2022-10-23T11:53:40.604Z,25.59
2022-10-23T11:56:13.753Z,25.57
2022-10-23T11:58:44.344Z,25.55
2022-10-23T12:01:25.249Z,25.49
2022-10-23T12:04:04.450Z,25.46
2022-10-23T12:07:14.473Z,25.41
2022-10-23T12:09:45.910Z,25.37
2022-10-23T12:12:18.369Z,25.31
2022-10-23T12:14:48.945Z,25.28
2022-10-23T12:17:25.231Z,25.29
2022-10-23T12:20:09.999Z,25.25
2022-10-23T12:23:16.216Z,25.20
2022-10-23T12:26:23.364Z,25.20
2022-10-23T12:29:21.926Z,25.17
2022-10-23T12:32:26.509Z,25.20
2022-10-23T12:35:10.076Z,25.23
2022-10-23T12:38:04.477Z,25.26
2022-10-23T12:40:33.330Z,25.32
2022-10-23T12:43:01.796Z,25.39
2022-10-23T12:45:39.012Z,25.47
2022-10-23T12:48:07.478Z,25.49
2022-10-23T12:50:48.252Z,25.48
2022-10-23T12:53:18.200Z,25.54
2022-10-23T12:55:50.319Z,25.56
2022-10-23T12:58:25.962Z,25.60
2022-10-23T13:01:10.312Z,25.63
2022-10-23T13:03:39.141Z,25.69
2022-10-23T13:06:07.224Z,25.61
2022-10-23T13:08:47.898Z,25.69
2022-10-23T13:11:57.435Z,25.69
2022-10-23T13:14:34.008Z,25.76
2022-10-23T13:17:06.949Z,25.70
2022-10-23T13:19:35.581Z,25.71
2022-10-23T13:22:20.301Z,25.82
2022-10-23T13:24:48.570Z,25.92
2022-10-23T13:27:49.919Z,25.98
2022-10-23T13:30:34.323Z,26.03
2022-10-23T13:33:02.334Z,26.06
2022-10-23T13:35:29.605Z,26.19
2022-10-23T13:38:11.396Z,26.27
2022-10-23T13:41:01.721Z,26.36
2022-10-23T13:43:31.091Z,26.38
2022-10-23T13:46:00.228Z,26.42
2022-10-23T13:48:28.483Z,26.39
2022-10-23T13:51:10.981Z,26.41
2022-10-23T13:53:38.492Z,26.45
2022-10-23T13:56:06.294Z,26.47
2022-10-23T13:58:34.266Z,26.46
2022-10-23T14:01:27.585Z,26.42
2022-10-23T14:04:00.405Z,26.37
2022-10-23T14:06:30.732Z,26.36
2022-10-23T14:09:01.183Z,26.31
2022-10-23T14:11:32.908Z,26.36
2022-10-23T14:14:03.805Z,26.34
2022-10-23T14:16:31.745Z,26.32
2022-10-23T14:18:59.237Z,26.29
2022-10-23T14:21:26.587Z,26.34
2022-10-23T14:23:54.398Z,26.26
2022-10-23T14:26:24.908Z,26.23
2022-10-23T14:29:02.294Z,26.17
2022-10-23T14:31:34.511Z,26.12
2022-10-23T14:34:02.764Z,26.12
2022-10-23T14:36:38.574Z,26.10
2022-10-23T14:39:21.894Z,26.06
2022-10-23T14:41:49.162Z,26.07
2022-10-23T14:44:16.442Z,26.08
2022-10-23T14:46:44.244Z,26.07
2022-10-23T14:49:11.447Z,26.05
2022-10-23T14:51:38.819Z,26.06
2022-10-23T14:54:07.844Z,26.05
2022-10-23T14:56:38.058Z,26.07
2022-10-23T14:59:06.896Z,25.97
2022-10-23T15:01:41.239Z,26.00
2022-10-23T15:04:14.857Z,26.01
2022-10-23T15:06:52.620Z,26.04
2022-10-23T15:09:20.502Z,26.03
2022-10-23T15:11:51.992Z,26.06
2022-10-23T15:14:30.079Z,26.13
2022-10-23T15:16:57.317Z,26.18
2022-10-23T15:19:26.426Z,26.17
2022-10-23T15:21:55.092Z,26.14
2022-10-23T15:24:22.407Z,26.14
2022-10-23T15:26:52.470Z,26.14
2022-10-23T15:29:20.536Z,26.12
2022-10-23T15:32:00.189Z,26.12
2022-10-23T15:34:29.906Z,26.07
2022-10-23T15:37:07.389Z,26.06
2022-10-23T15:39:43.184Z,26.03
2022-10-23T15:42:11.297Z,25.99
2022-10-23T15:44:40.946Z,25.96
2022-10-23T15:47:08.506Z,25.92
2022-10-23T15:49:48.447Z,25.91
2022-10-23T15:52:16.013Z,25.89
2022-10-23T15:54:43.577Z,25.87
2022-10-23T15:57:11.230Z,25.86
2022-10-23T15:59:38.480Z,25.86
2022-10-23T16:02:06.022Z,25.82
2022-10-23T16:04:34.453Z,25.76
2022-10-23T16:07:01.961Z,25.72
2022-10-23T16:09:31.488Z,25.64
2022-10-23T16:12:07.401Z,25.61
2022-10-23T16:14:35.701Z,25.55
2022-10-23T16:17:03.066Z,25.43
2022-10-23T16:19:30.326Z,25.38
2022-10-23T16:21:57.494Z,25.35
2022-10-23T16:24:26.368Z,25.31
2022-10-23T16:26:58.310Z,25.26
2022-10-23T16:29:31.298Z,25.18
2022-10-23T16:32:07.547Z,25.19
2022-10-23T16:34:36.451Z,25.15
2022-10-23T16:37:03.978Z,25.11
2022-10-23T16:39:53.863Z,25.09
2022-10-23T16:42:41.121Z,25.02
2022-10-23T16:45:37.921Z,24.97
2022-10-23T16:48:15.257Z,24.92
2022-10-23T16:50:42.657Z,24.89
2022-10-23T16:53:13.142Z,24.88
2022-10-23T16:55:41.369Z,24.85
2022-10-23T16:58:09.322Z,24.85
2022-10-23T17:00:36.611Z,24.83
2022-10-23T17:03:05.496Z,24.85
2022-10-23T17:05:36.296Z,24.81
2022-10-23T17:08:04.240Z,24.75
2022-10-23T17:10:31.793Z,24.71
2022-10-23T17:12:59.020Z,24.69
2022-10-23T17:15:26.360Z,24.68
2022-10-23T17:17:58.840Z,24.64
2022-10-23T17:20:29.456Z,24.62
2022-10-23T17:22:57.493Z,24.62
2022-10-23T17:25:26.929Z,24.63
2022-10-23T17:28:00.989Z,24.61
2022-10-23T17:30:28.956Z,24.62
2022-10-23T17:33:01.917Z,24.57
2022-10-23T17:35:35.053Z,24.53
2022-10-23T17:38:19.285Z,24.54
2022-10-23T17:40:52.772Z,24.55
2022-10-23T17:43:20.272Z,24.58
2022-10-23T17:45:54.394Z,24.59
2022-10-23T17:48:32.290Z,24.58
2022-10-23T17:51:23.393Z,24.63
2022-10-23T17:53:56.081Z,24.62
2022-10-23T17:56:26.451Z,24.65
2022-10-23T17:58:57.871Z,24.65
2022-10-23T18:01:30.253Z,24.66
2022-10-23T18:04:12.366Z,24.65
2022-10-23T18:06:59.009Z,24.62
2022-10-23T18:09:38.382Z,24.62
2022-10-23T18:12:07.275Z,24.63
2022-10-23T18:14:52.476Z,24.55
2022-10-23T18:17:19.962Z,24.51
2022-10-23T18:19:58.366Z,24.53
2022-10-23T18:22:31.155Z,24.51
2022-10-23T18:25:03.140Z,24.48
2022-10-23T18:27:31.010Z,24.46
2022-10-23T18:30:02.077Z,24.45
2022-10-23T18:32:30.395Z,24.47
2022-10-23T18:35:01.556Z,24.47
2022-10-23T18:37:40.598Z,24.46
2022-10-23T18:40:19.445Z,24.44
2022-10-23T18:42:58.698Z,24.45
2022-10-23T18:46:00.285Z,24.45
2022-10-23T18:48:35.742Z,24.43
2022-10-23T18:51:10.309Z,24.42
2022-10-23T18:53:39.457Z,24.41
2022-10-23T18:56:09.266Z,24.41
2022-10-23T18:58:38.692Z,24.37
2022-10-23T19:01:10.618Z,24.37
2022-10-23T19:09:40.871Z,24.33
2022-10-23T19:12:10.180Z,24.30
2022-10-23T19:14:47.318Z,24.29
2022-10-23T19:17:33.290Z,24.29
2022-10-23T19:20:07.483Z,24.26
2022-10-23T19:22:36.463Z,24.26
2022-10-23T19:25:25.524Z,24.24
2022-10-23T19:28:03.586Z,24.26
2022-10-23T19:30:31.659Z,24.29
2022-10-23T19:33:00.961Z,24.29
2022-10-23T19:35:28.391Z,24.30
2022-10-23T19:37:56.279Z,24.27
2022-10-23T19:40:24.782Z,24.30
2022-10-23T19:42:54.533Z,24.27
2022-10-23T19:45:22.888Z,24.26
2022-10-23T19:47:50.293Z,24.28
2022-10-23T19:50:23.170Z,24.29
2022-10-23T19:52:50.459Z,24.29
2022-10-23T19:55:18.262Z,24.29
2022-10-23T19:57:45.673Z,24.28
2022-10-23T20:00:14.445Z,24.27
2022-10-23T20:02:43.363Z,24.26
2022-10-23T20:05:11.274Z,24.23
2022-10-23T20:07:39.428Z,24.21
2022-10-23T20:10:08.660Z,24.17
2022-10-23T20:12:35.867Z,24.14
2022-10-23T20:15:03.048Z,24.14
2022-10-23T20:17:30.242Z,24.14
2022-10-23T20:20:01.042Z,24.14
2022-10-23T20:22:28.796Z,24.12
2022-10-23T20:24:56.445Z,24.10
2022-10-23T20:27:30.227Z,24.06
2022-10-23T20:30:08.551Z,24.08
2022-10-23T20:32:39.810Z,24.07
2022-10-23T20:35:08.449Z,24.04
2022-10-23T20:37:38.835Z,24.01
2022-10-23T20:40:06.822Z,23.97
2022-10-23T20:42:35.132Z,23.96
2022-10-23T20:45:03.838Z,23.97
2022-10-23T20:47:32.473Z,23.89
2022-10-23T20:50:00.338Z,23.88
2022-10-23T20:52:30.387Z,23.84
2022-10-23T20:54:58.124Z,23.85
2022-10-23T20:57:26.126Z,23.83
2022-10-23T20:59:55.421Z,23.75
2022-10-23T21:02:22.968Z,23.71
2022-10-23T21:04:50.758Z,23.63
2022-10-23T21:07:18.920Z,23.67
2022-10-23T21:09:49.786Z,23.63
2022-10-23T21:12:17.808Z,23.60
2022-10-23T21:14:45.043Z,23.62
2022-10-23T21:17:17.055Z,23.61
2022-10-23T21:19:44.813Z,23.61
2022-10-23T21:22:13.053Z,23.61
2022-10-23T21:24:40.783Z,23.59
2022-10-23T21:27:08.086Z,23.47
2022-10-23T21:29:35.396Z,23.53
2022-10-23T21:32:02.635Z,23.55
2022-10-23T21:34:31.478Z,23.56
2022-10-23T21:37:18.126Z,23.55
2022-10-23T21:39:48.746Z,23.55
2022-10-23T21:42:16.246Z,23.50
2022-10-23T21:44:44.680Z,23.50
2022-10-23T21:47:12.539Z,23.49
2022-10-23T21:49:40.037Z,23.50
2022-10-23T21:52:08.611Z,23.48
2022-10-23T21:54:36.316Z,23.44
2022-10-23T21:57:04.628Z,23.44
2022-10-23T21:59:35.985Z,23.42
2022-10-23T22:02:04.473Z,23.40
2022-10-23T22:04:32.302Z,23.32
2022-10-23T22:07:00.230Z,23.26
2022-10-23T22:09:32.078Z,23.18
2022-10-23T22:12:02.983Z,23.13
2022-10-23T22:14:30.871Z,23.04
2022-10-23T22:16:59.017Z,23.06
2022-10-23T22:19:28.744Z,22.95
2022-10-23T22:21:56.686Z,22.96
2022-10-23T22:24:27.459Z,22.88
2022-10-23T22:26:57.242Z,22.78
2022-10-23T22:29:36.585Z,22.74
2022-10-23T22:32:04.344Z,22.76
2022-10-23T22:38:29.207Z,22.75
2022-10-23T22:41:07.314Z,22.55
2022-10-23T22:43:45.227Z,22.59
2022-10-23T22:46:15.798Z,22.53
2022-10-23T22:48:43.812Z,22.53
2022-10-23T22:51:14.739Z,22.50
2022-10-23T22:53:43.606Z,22.54
2022-10-23T22:56:15.579Z,22.58
2022-10-23T22:58:47.568Z,22.50
2022-10-23T23:01:32.450Z,22.44
2022-10-23T23:04:08.807Z,22.42
2022-10-23T23:06:48.184Z,22.43
2022-10-23T23:09:20.304Z,22.43
2022-10-23T23:11:52.470Z,22.43
2022-10-23T23:14:24.352Z,22.28
2022-10-23T23:16:53.777Z,22.35
2022-10-23T23:19:23.535Z,22.30
2022-10-23T23:21:51.542Z,22.27
2022-10-23T23:24:19.442Z,22.22
2022-10-23T23:26:48.575Z,22.34
2022-10-23T23:29:19.320Z,22.23
2022-10-23T23:31:47.545Z,22.25
2022-10-23T23:34:23.913Z,22.20
2022-10-23T23:36:51.409Z,22.13
2022-10-23T23:39:18.918Z,22.19
2022-10-23T23:41:46.299Z,22.18
2022-10-23T23:44:13.755Z,22.17
2022-10-23T23:46:41.597Z,22.14
2022-10-23T23:49:09.393Z,22.14
2022-10-23T23:51:37.757Z,22.20
2022-10-23T23:54:05.646Z,22.17
2022-10-23T23:56:33.295Z,22.22
2022-10-23T23:59:01.148Z,22.30
